sensor_id;sensor_type;location;lat;lon;timestamp;pressure;altitude;pressure_sealevel;temperature;humidity
8229;BME280;4155;50.118;8.714;2022-12-07T00:01:41;100162.91;;;4.78;83.00
8229;BME280;4155;50.118;8.714;2022-12-07T00:04:12;100163.59;;;4.80;83.45
8229;BME280;4155;50.118;8.714;2022-12-07T00:06:41;100165.78;;;4.84;83.23
8229;BME280;4155;50.118;8.714;2022-12-07T00:09:12;100173.25;;;4.81;83.25
8229;BME280;4155;50.118;8.714;2022-12-07T00:11:41;100170.28;;;4.84;82.71
8229;BME280;4155;50.118;8.714;2022-12-07T00:14:14;100159.81;;;4.82;83.26
8229;BME280;4155;50.118;8.714;2022-12-07T00:16:43;100150.34;;;4.88;82.29
8229;BME280;4155;50.118;8.714;2022-12-07T00:19:12;100161.94;;;4.79;82.57
8229;BME280;4155;50.118;8.714;2022-12-07T00:21:41;100153.22;;;4.94;82.05
8229;BME280;4155;50.118;8.714;2022-12-07T00:24:10;100150.47;;;4.78;82.45
8229;BME280;4155;50.118;8.714;2022-12-07T00:26:41;100144.38;;;4.86;82.82
8229;BME280;4155;50.118;8.714;2022-12-07T00:29:15;100144.53;;;4.84;82.72
8229;BME280;4155;50.118;8.714;2022-12-07T00:31:43;100147.59;;;4.72;83.02
8229;BME280;4155;50.118;8.714;2022-12-07T00:34:13;100141.16;;;4.74;82.75
8229;BME280;4155;50.118;8.714;2022-12-07T00:36:44;100132.66;;;4.71;83.31
8229;BME280;4155;50.118;8.714;2022-12-07T00:39:12;100128.94;;;4.63;83.66
8229;BME280;4155;50.118;8.714;2022-12-07T00:41:42;100128.19;;;4.71;83.55
8229;BME280;4155;50.118;8.714;2022-12-07T00:44:09;100121.00;;;4.63;83.99
8229;BME280;4155;50.118;8.714;2022-12-07T00:46:38;100128.44;;;4.60;84.20
8229;BME280;4155;50.118;8.714;2022-12-07T00:49:06;100120.63;;;4.58;84.73
8229;BME280;4155;50.118;8.714;2022-12-07T00:51:33;100125.78;;;4.86;83.78
8229;BME280;4155;50.118;8.714;2022-12-07T00:54:02;100127.69;;;4.76;83.54
8229;BME280;4155;50.118;8.714;2022-12-07T00:56:32;100126.34;;;4.72;83.57
8229;BME280;4155;50.118;8.714;2022-12-07T00:59:03;100127.81;;;4.66;84.16
8229;BME280;4155;50.118;8.714;2022-12-07T01:01:34;100124.97;;;4.68;84.66
8229;BME280;4155;50.118;8.714;2022-12-07T01:04:02;100131.84;;;4.70;84.30
8229;BME280;4155;50.118;8.714;2022-12-07T01:06:30;100129.84;;;4.72;84.22
8229;BME280;4155;50.118;8.714;2022-12-07T01:09:03;100134.00;;;4.49;84.96
8229;BME280;4155;50.118;8.714;2022-12-07T01:11:31;100119.94;;;4.56;85.58
8229;BME280;4155;50.118;8.714;2022-12-07T01:14:00;100120.63;;;4.58;85.11
8229;BME280;4155;50.118;8.714;2022-12-07T01:16:30;100117.81;;;4.60;85.41
8229;BME280;4155;50.118;8.714;2022-12-07T01:18:59;100112.03;;;4.64;85.32
8229;BME280;4155;50.118;8.714;2022-12-07T01:21:29;100112.59;;;4.50;85.81
8229;BME280;4155;50.118;8.714;2022-12-07T01:23:59;100100.66;;;4.54;85.70
8229;BME280;4155;50.118;8.714;2022-12-07T01:26:27;100103.59;;;4.43;85.97
8229;BME280;4155;50.118;8.714;2022-12-07T01:28:55;100101.59;;;4.45;85.78
8229;BME280;4155;50.118;8.714;2022-12-07T01:31:28;100110.13;;;4.31;86.31
8229;BME280;4155;50.118;8.714;2022-12-07T01:33:57;100107.06;;;4.44;85.64
8229;BME280;4155;50.118;8.714;2022-12-07T01:36:27;100107.44;;;4.49;85.76
8229;BME280;4155;50.118;8.714;2022-12-07T01:38:57;100110.56;;;4.44;86.04
8229;BME280;4155;50.118;8.714;2022-12-07T01:41:27;100118.22;;;4.47;86.06
8229;BME280;4155;50.118;8.714;2022-12-07T01:44:09;100119.06;;;4.48;85.70
8229;BME280;4155;50.118;8.714;2022-12-07T01:46:40;100110.78;;;4.51;85.91
8229;BME280;4155;50.118;8.714;2022-12-07T01:49:12;100119.66;;;4.68;85.54
8229;BME280;4155;50.118;8.714;2022-12-07T01:51:43;100121.66;;;4.65;84.84
8229;BME280;4155;50.118;8.714;2022-12-07T01:54:13;100119.09;;;4.56;85.35
8229;BME280;4155;50.118;8.714;2022-12-07T01:56:46;100127.31;;;5.22;90.32
8229;BME280;4155;50.118;8.714;2022-12-07T01:59:17;100122.66;;;4.90;87.68
8229;BME280;4155;50.118;8.714;2022-12-07T02:01:50;100113.69;;;4.91;86.23
8229;BME280;4155;50.118;8.714;2022-12-07T02:04:21;100120.47;;;4.86;84.79
8229;BME280;4155;50.118;8.714;2022-12-07T02:06:49;100114.00;;;4.88;84.54
8229;BME280;4155;50.118;8.714;2022-12-07T02:09:45;100108.44;;;4.74;84.26
8229;BME280;4155;50.118;8.714;2022-12-07T02:12:14;100099.63;;;4.73;84.47
8229;BME280;4155;50.118;8.714;2022-12-07T02:14:52;100098.28;;;4.43;85.06
8229;BME280;4155;50.118;8.714;2022-12-07T02:17:27;100097.75;;;4.40;86.37
8229;BME280;4155;50.118;8.714;2022-12-07T02:20:14;100100.56;;;4.38;87.25
8229;BME280;4155;50.118;8.714;2022-12-07T02:26:34;100088.66;;;4.42;86.98
8229;BME280;4155;50.118;8.714;2022-12-07T02:29:18;100093.53;;;4.29;87.06
8229;BME280;4155;50.118;8.714;2022-12-07T02:31:59;100088.47;;;4.18;88.45
8229;BME280;4155;50.118;8.714;2022-12-07T02:34:43;100082.84;;;4.21;88.36
8229;BME280;4155;50.118;8.714;2022-12-07T02:37:25;100086.72;;;4.09;88.66
8229;BME280;4155;50.118;8.714;2022-12-07T02:39:59;100075.03;;;4.19;88.38
8229;BME280;4155;50.118;8.714;2022-12-07T02:42:32;100081.09;;;4.12;88.12
8229;BME280;4155;50.118;8.714;2022-12-07T02:45:05;100066.25;;;4.01;88.31
8229;BME280;4155;50.118;8.714;2022-12-07T02:47:40;100077.84;;;3.82;88.78
8229;BME280;4155;50.118;8.714;2022-12-07T02:50:12;100071.44;;;3.85;89.27
8229;BME280;4155;50.118;8.714;2022-12-07T02:52:42;100073.94;;;3.86;89.01
8229;BME280;4155;50.118;8.714;2022-12-07T02:55:11;100079.00;;;3.97;88.87
8229;BME280;4155;50.118;8.714;2022-12-07T02:57:54;100079.31;;;3.94;88.88
8229;BME280;4155;50.118;8.714;2022-12-07T03:00:27;100077.88;;;4.00;88.82
8229;BME280;4155;50.118;8.714;2022-12-07T03:03:00;100089.53;;;3.89;88.55
8229;BME280;4155;50.118;8.714;2022-12-07T03:05:56;100074.63;;;4.06;88.82
8229;BME280;4155;50.118;8.714;2022-12-07T03:08:36;100069.59;;;4.03;88.63
8229;BME280;4155;50.118;8.714;2022-12-07T03:11:09;100072.06;;;4.22;88.30
8229;BME280;4155;50.118;8.714;2022-12-07T03:13:50;100070.56;;;4.20;87.73
8229;BME280;4155;50.118;8.714;2022-12-07T03:16:24;100079.94;;;4.32;87.37
8229;BME280;4155;50.118;8.714;2022-12-07T03:19:03;100069.41;;;4.22;87.35
8229;BME280;4155;50.118;8.714;2022-12-07T03:21:38;100066.59;;;4.24;87.60
8229;BME280;4155;50.118;8.714;2022-12-07T03:24:12;100064.69;;;4.34;87.98
8229;BME280;4155;50.118;8.714;2022-12-07T03:26:52;100082.53;;;4.24;87.81
8229;BME280;4155;50.118;8.714;2022-12-07T03:29:36;100071.81;;;4.33;87.64
8229;BME280;4155;50.118;8.714;2022-12-07T03:32:13;100076.28;;;4.33;87.03
8229;BME280;4155;50.118;8.714;2022-12-07T03:34:47;100071.94;;;4.50;86.96
8229;BME280;4155;50.118;8.714;2022-12-07T03:37:22;100073.59;;;4.51;85.92
8229;BME280;4155;50.118;8.714;2022-12-07T03:39:57;100057.34;;;4.54;86.31
8229;BME280;4155;50.118;8.714;2022-12-07T03:42:29;100060.69;;;4.56;86.33
8229;BME280;4155;50.118;8.714;2022-12-07T03:45:02;100053.88;;;4.53;85.86
8229;BME280;4155;50.118;8.714;2022-12-07T03:47:42;100061.88;;;4.61;85.77
8229;BME280;4155;50.118;8.714;2022-12-07T03:50:23;100057.91;;;4.57;85.85
8229;BME280;4155;50.118;8.714;2022-12-07T03:52:58;100064.03;;;4.58;85.62
8229;BME280;4155;50.118;8.714;2022-12-07T03:55:44;100061.94;;;4.44;86.32
8229;BME280;4155;50.118;8.714;2022-12-07T03:58:19;100055.38;;;4.30;87.10
8229;BME280;4155;50.118;8.714;2022-12-07T04:00:52;100050.06;;;4.30;86.63
8229;BME280;4155;50.118;8.714;2022-12-07T04:03:22;100055.91;;;4.33;87.09
8229;BME280;4155;50.118;8.714;2022-12-07T04:05:51;100059.69;;;4.31;87.16
8229;BME280;4155;50.118;8.714;2022-12-07T04:08:21;100043.25;;;4.27;87.92
8229;BME280;4155;50.118;8.714;2022-12-07T04:10:50;100052.94;;;4.37;87.73
8229;BME280;4155;50.118;8.714;2022-12-07T04:13:19;100046.19;;;4.24;87.90
8229;BME280;4155;50.118;8.714;2022-12-07T04:15:54;100039.22;;;4.23;88.07
8229;BME280;4155;50.118;8.714;2022-12-07T04:18:26;100045.34;;;4.16;87.96
8229;BME280;4155;50.118;8.714;2022-12-07T04:20:55;100045.09;;;4.27;87.97
8229;BME280;4155;50.118;8.714;2022-12-07T04:23:24;100050.41;;;4.27;87.55
8229;BME280;4155;50.118;8.714;2022-12-07T04:25:52;100051.13;;;4.37;87.42
8229;BME280;4155;50.118;8.714;2022-12-07T04:28:21;100050.47;;;4.43;87.26
8229;BME280;4155;50.118;8.714;2022-12-07T04:30:49;100041.59;;;4.52;86.59
8229;BME280;4155;50.118;8.714;2022-12-07T04:33:18;100046.13;;;4.60;86.21
8229;BME280;4155;50.118;8.714;2022-12-07T04:35:48;100052.97;;;4.71;86.58
8229;BME280;4155;50.118;8.714;2022-12-07T04:38:19;100047.41;;;4.56;86.87
8229;BME280;4155;50.118;8.714;2022-12-07T04:40:48;100058.78;;;4.40;86.61
8229;BME280;4155;50.118;8.714;2022-12-07T04:43:18;100058.66;;;4.50;86.46
8229;BME280;4155;50.118;8.714;2022-12-07T04:45:48;100061.09;;;4.43;86.93
8229;BME280;4155;50.118;8.714;2022-12-07T04:48:20;100052.00;;;4.46;86.96
8229;BME280;4155;50.118;8.714;2022-12-07T04:50:50;100054.63;;;4.46;86.68
8229;BME280;4155;50.118;8.714;2022-12-07T04:53:21;100044.91;;;4.54;86.70
8229;BME280;4155;50.118;8.714;2022-12-07T04:55:52;100049.59;;;4.60;87.05
8229;BME280;4155;50.118;8.714;2022-12-07T04:58:20;100053.13;;;4.43;86.97
8229;BME280;4155;50.118;8.714;2022-12-07T05:00:49;100052.13;;;4.36;87.16
8229;BME280;4155;50.118;8.714;2022-12-07T05:03:18;100044.00;;;4.38;86.40
8229;BME280;4155;50.118;8.714;2022-12-07T05:05:47;100039.38;;;4.22;87.79
8229;BME280;4155;50.118;8.714;2022-12-07T05:08:20;100034.97;;;4.30;88.06
8229;BME280;4155;50.118;8.714;2022-12-07T05:10:52;100032.91;;;4.42;87.30
8229;BME280;4155;50.118;8.714;2022-12-07T05:13:21;100027.38;;;4.35;87.54
8229;BME280;4155;50.118;8.714;2022-12-07T05:15:53;100033.75;;;4.25;87.57
8229;BME280;4155;50.118;8.714;2022-12-07T05:18:30;100033.56;;;4.44;87.41
8229;BME280;4155;50.118;8.714;2022-12-07T05:21:02;100039.13;;;4.33;87.51
8229;BME280;4155;50.118;8.714;2022-12-07T05:23:32;100044.28;;;4.34;87.46
8229;BME280;4155;50.118;8.714;2022-12-07T05:26:01;100046.53;;;4.21;88.27
8229;BME280;4155;50.118;8.714;2022-12-07T05:28:30;100037.28;;;4.25;88.15
8229;BME280;4155;50.118;8.714;2022-12-07T05:30:58;100054.13;;;4.42;87.71
8229;BME280;4155;50.118;8.714;2022-12-07T05:33:28;100045.41;;;4.50;87.66
8229;BME280;4155;50.118;8.714;2022-12-07T05:35:58;100038.88;;;4.44;87.50
8229;BME280;4155;50.118;8.714;2022-12-07T05:38:36;100041.78;;;4.59;87.29
8229;BME280;4155;50.118;8.714;2022-12-07T05:41:13;100040.47;;;4.63;86.97
8229;BME280;4155;50.118;8.714;2022-12-07T05:43:56;100037.56;;;4.74;87.30
8229;BME280;4155;50.118;8.714;2022-12-07T05:46:28;100030.25;;;4.76;86.46
8229;BME280;4155;50.118;8.714;2022-12-07T05:48:58;100041.41;;;4.80;86.68
8229;BME280;4155;50.118;8.714;2022-12-07T05:51:26;100048.19;;;4.74;86.68
8229;BME280;4155;50.118;8.714;2022-12-07T05:53:57;100048.72;;;4.86;85.99
8229;BME280;4155;50.118;8.714;2022-12-07T05:56:27;100044.09;;;4.88;85.92
8229;BME280;4155;50.118;8.714;2022-12-07T05:58:55;100049.72;;;4.85;86.03
8229;BME280;4155;50.118;8.714;2022-12-07T06:01:41;100043.75;;;4.83;86.12
8229;BME280;4155;50.118;8.714;2022-12-07T06:04:11;100043.06;;;4.81;86.20
8229;BME280;4155;50.118;8.714;2022-12-07T06:06:42;100046.56;;;4.81;86.15
8229;BME280;4155;50.118;8.714;2022-12-07T06:09:22;100036.94;;;4.88;86.66
8229;BME280;4155;50.118;8.714;2022-12-07T06:11:51;100033.78;;;4.85;86.17
8229;BME280;4155;50.118;8.714;2022-12-07T06:14:37;100039.97;;;4.93;86.17
8229;BME280;4155;50.118;8.714;2022-12-07T06:17:07;100036.31;;;4.94;86.12
8229;BME280;4155;50.118;8.714;2022-12-07T06:19:36;100033.56;;;4.78;86.31
8229;BME280;4155;50.118;8.714;2022-12-07T06:22:06;100039.88;;;4.69;85.97
8229;BME280;4155;50.118;8.714;2022-12-07T06:24:38;100042.34;;;4.71;87.14
8229;BME280;4155;50.118;8.714;2022-12-07T06:27:07;100043.25;;;4.53;87.44
8229;BME280;4155;50.118;8.714;2022-12-07T06:29:35;100035.50;;;4.60;87.70
8229;BME280;4155;50.118;8.714;2022-12-07T06:32:04;100049.34;;;4.72;87.38
8229;BME280;4155;50.118;8.714;2022-12-07T06:34:32;100041.88;;;4.75;86.91
8229;BME280;4155;50.118;8.714;2022-12-07T06:37:00;100034.44;;;4.79;87.14
8229;BME280;4155;50.118;8.714;2022-12-07T06:39:28;100035.41;;;4.78;86.99
8229;BME280;4155;50.118;8.714;2022-12-07T06:41:57;100033.91;;;4.75;87.10
8229;BME280;4155;50.118;8.714;2022-12-07T06:44:25;100034.06;;;4.74;87.32
8229;BME280;4155;50.118;8.714;2022-12-07T06:46:54;100036.59;;;4.83;87.09
8229;BME280;4155;50.118;8.714;2022-12-07T06:49:41;100044.19;;;4.70;87.48
8229;BME280;4155;50.118;8.714;2022-12-07T06:52:09;100046.72;;;4.80;87.45
8229;BME280;4155;50.118;8.714;2022-12-07T06:54:37;100045.41;;;4.84;87.15
8229;BME280;4155;50.118;8.714;2022-12-07T06:57:06;100043.38;;;4.78;87.35
8229;BME280;4155;50.118;8.714;2022-12-07T06:59:37;100042.94;;;4.90;87.32
8229;BME280;4155;50.118;8.714;2022-12-07T07:02:04;100049.81;;;5.01;86.70
8229;BME280;4155;50.118;8.714;2022-12-07T07:04:42;100057.78;;;5.09;86.52
8229;BME280;4155;50.118;8.714;2022-12-07T07:07:09;100058.47;;;5.11;86.48
8229;BME280;4155;50.118;8.714;2022-12-07T07:09:37;100060.59;;;5.08;86.66
8229;BME280;4155;50.118;8.714;2022-12-07T07:12:06;100061.78;;;5.05;87.31
8229;BME280;4155;50.118;8.714;2022-12-07T07:14:34;100067.78;;;5.15;86.99
8229;BME280;4155;50.118;8.714;2022-12-07T07:17:02;100065.84;;;5.26;86.68
8229;BME280;4155;50.118;8.714;2022-12-07T07:19:30;100068.13;;;5.12;86.13
8229;BME280;4155;50.118;8.714;2022-12-07T07:21:58;100079.91;;;5.18;86.91
8229;BME280;4155;50.118;8.714;2022-12-07T07:24:25;100078.38;;;5.07;86.32
8229;BME280;4155;50.118;8.714;2022-12-07T07:26:53;100076.06;;;5.04;86.63
8229;BME280;4155;50.118;8.714;2022-12-07T07:29:22;100074.06;;;5.06;86.95
8229;BME280;4155;50.118;8.714;2022-12-07T07:31:50;100070.25;;;5.09;86.64
8229;BME280;4155;50.118;8.714;2022-12-07T07:34:17;100073.34;;;4.96;86.84
8229;BME280;4155;50.118;8.714;2022-12-07T07:36:45;100062.34;;;4.83;87.59
8229;BME280;4155;50.118;8.714;2022-12-07T07:39:13;100070.94;;;4.77;87.57
8229;BME280;4155;50.118;8.714;2022-12-07T07:41:41;100068.09;;;4.70;87.63
8229;BME280;4155;50.118;8.714;2022-12-07T07:44:09;100071.47;;;4.88;87.63
8229;BME280;4155;50.118;8.714;2022-12-07T07:46:38;100073.41;;;5.04;87.01
8229;BME280;4155;50.118;8.714;2022-12-07T07:49:06;100070.75;;;5.04;86.51
8229;BME280;4155;50.118;8.714;2022-12-07T07:51:34;100065.25;;;5.06;86.72
8229;BME280;4155;50.118;8.714;2022-12-07T07:54:01;100070.19;;;5.35;85.51
8229;BME280;4155;50.118;8.714;2022-12-07T07:56:29;100066.16;;;5.22;85.59
8229;BME280;4155;50.118;8.714;2022-12-07T07:58:57;100077.00;;;5.37;84.49
8229;BME280;4155;50.118;8.714;2022-12-07T08:01:24;100075.97;;;5.30;84.85
8229;BME280;4155;50.118;8.714;2022-12-07T08:03:53;100069.69;;;5.39;84.40
8229;BME280;4155;50.118;8.714;2022-12-07T08:06:21;100082.81;;;5.41;84.03
8229;BME280;4155;50.118;8.714;2022-12-07T08:08:55;100076.50;;;5.42;84.41
8229;BME280;4155;50.118;8.714;2022-12-07T08:11:24;100081.22;;;5.56;84.06
8229;BME280;4155;50.118;8.714;2022-12-07T08:13:52;100079.03;;;5.51;83.62
8229;BME280;4155;50.118;8.714;2022-12-07T08:16:20;100069.19;;;5.36;84.36
8229;BME280;4155;50.118;8.714;2022-12-07T08:18:48;100074.50;;;5.36;84.23
8229;BME280;4155;50.118;8.714;2022-12-07T08:21:17;100086.28;;;5.25;84.54
8229;BME280;4155;50.118;8.714;2022-12-07T08:23:45;100079.41;;;5.14;84.97
8229;BME280;4155;50.118;8.714;2022-12-07T08:26:14;100080.16;;;5.33;84.91
8229;BME280;4155;50.118;8.714;2022-12-07T08:28:43;100081.75;;;5.17;84.76
8229;BME280;4155;50.118;8.714;2022-12-07T08:31:13;100091.72;;;5.15;84.65
8229;BME280;4155;50.118;8.714;2022-12-07T08:33:42;100083.75;;;5.15;84.82
8229;BME280;4155;50.118;8.714;2022-12-07T08:36:14;100086.72;;;5.20;85.35
8229;BME280;4155;50.118;8.714;2022-12-07T08:38:43;100087.09;;;5.26;84.46
8229;BME280;4155;50.118;8.714;2022-12-07T08:41:31;100094.41;;;5.23;84.79
8229;BME280;4155;50.118;8.714;2022-12-07T08:43:58;100087.06;;;5.68;86.51
8229;BME280;4155;50.118;8.714;2022-12-07T08:46:29;100088.59;;;5.95;86.57
8229;BME280;4155;50.118;8.714;2022-12-07T08:49:04;100100.75;;;6.62;86.98
8229;BME280;4155;50.118;8.714;2022-12-07T08:51:32;100095.09;;;6.57;84.51
8229;BME280;4155;50.118;8.714;2022-12-07T08:54:04;100099.91;;;6.70;82.14
8229;BME280;4155;50.118;8.714;2022-12-07T08:56:34;100101.28;;;6.42;79.66
8229;BME280;4155;50.118;8.714;2022-12-07T08:59:03;100094.94;;;6.26;79.47
8229;BME280;4155;50.118;8.714;2022-12-07T09:01:31;100098.78;;;5.99;80.38
8229;BME280;4155;50.118;8.714;2022-12-07T09:03:59;100098.53;;;5.85;81.12
8229;BME280;4155;50.118;8.714;2022-12-07T09:06:28;100094.72;;;5.79;82.08
8229;BME280;4155;50.118;8.714;2022-12-07T09:08:58;100102.69;;;5.71;81.78
8229;BME280;4155;50.118;8.714;2022-12-07T09:11:29;100093.03;;;5.70;82.32
8229;BME280;4155;50.118;8.714;2022-12-07T09:13:56;100098.53;;;5.68;82.20
8229;BME280;4155;50.118;8.714;2022-12-07T09:16:24;100096.03;;;5.83;81.59
8229;BME280;4155;50.118;8.714;2022-12-07T09:18:52;100094.75;;;5.95;81.42
8229;BME280;4155;50.118;8.714;2022-12-07T09:21:19;100092.97;;;5.96;81.01
8229;BME280;4155;50.118;8.714;2022-12-07T09:23:47;100096.78;;;6.01;81.23
8229;BME280;4155;50.118;8.714;2022-12-07T09:26:15;100094.06;;;5.85;81.15
8229;BME280;4155;50.118;8.714;2022-12-07T09:28:43;100101.09;;;6.02;80.75
8229;BME280;4155;50.118;8.714;2022-12-07T09:31:11;100091.78;;;6.15;80.67
8229;BME280;4155;50.118;8.714;2022-12-07T09:33:55;100103.63;;;6.20;80.32
8229;BME280;4155;50.118;8.714;2022-12-07T09:36:23;100106.28;;;6.28;80.00
8229;BME280;4155;50.118;8.714;2022-12-07T09:38:51;100105.94;;;6.15;80.05
8229;BME280;4155;50.118;8.714;2022-12-07T09:41:20;100109.41;;;6.16;80.39
8229;BME280;4155;50.118;8.714;2022-12-07T09:43:49;100111.25;;;5.99;79.96
8229;BME280;4155;50.118;8.714;2022-12-07T09:46:19;100101.78;;;6.21;80.09
8229;BME280;4155;50.118;8.714;2022-12-07T09:48:50;100106.28;;;6.20;79.32
8229;BME280;4155;50.118;8.714;2022-12-07T09:51:20;100103.63;;;6.28;78.62
8229;BME280;4155;50.118;8.714;2022-12-07T09:53:52;100106.09;;;6.22;78.95
8229;BME280;4155;50.118;8.714;2022-12-07T09:56:21;100099.13;;;6.21;78.88
8229;BME280;4155;50.118;8.714;2022-12-07T09:58:54;100093.94;;;6.44;78.92
8229;BME280;4155;50.118;8.714;2022-12-07T10:01:29;100088.25;;;6.63;78.17
8229;BME280;4155;50.118;8.714;2022-12-07T10:04:08;100093.56;;;6.71;77.71
8229;BME280;4155;50.118;8.714;2022-12-07T10:06:37;100088.97;;;6.49;77.33
8229;BME280;4155;50.118;8.714;2022-12-07T10:09:09;100086.59;;;6.54;77.77
8229;BME280;4155;50.118;8.714;2022-12-07T10:11:59;100091.41;;;6.66;77.50
8229;BME280;4155;50.118;8.714;2022-12-07T10:14:29;100090.56;;;6.74;77.31
8229;BME280;4155;50.118;8.714;2022-12-07T10:17:30;100082.88;;;6.87;77.25
8229;BME280;4155;50.118;8.714;2022-12-07T10:20:26;100088.38;;;6.86;76.65
8229;BME280;4155;50.118;8.714;2022-12-07T10:22:56;100085.19;;;6.90;75.93
8229;BME280;4155;50.118;8.714;2022-12-07T10:25:27;100094.16;;;6.97;76.50
8229;BME280;4155;50.118;8.714;2022-12-07T10:28:00;100079.13;;;7.13;75.74
8229;BME280;4155;50.118;8.714;2022-12-07T10:30:31;100078.06;;;7.22;74.24
8229;BME280;4155;50.118;8.714;2022-12-07T10:32:59;100073.06;;;7.27;74.72
8229;BME280;4155;50.118;8.714;2022-12-07T10:35:28;100076.22;;;7.22;74.39
8229;BME280;4155;50.118;8.714;2022-12-07T10:37:58;100067.69;;;7.35;72.92
8229;BME280;4155;50.118;8.714;2022-12-07T10:40:30;100069.94;;;7.15;72.31
8229;BME280;4155;50.118;8.714;2022-12-07T10:43:05;100069.63;;;7.10;71.64
8229;BME280;4155;50.118;8.714;2022-12-07T10:46:01;100067.16;;;7.01;71.56
8229;BME280;4155;50.118;8.714;2022-12-07T10:48:47;100062.00;;;6.99;71.49
8229;BME280;4155;50.118;8.714;2022-12-07T10:51:24;100057.53;;;6.91;71.73
8229;BME280;4155;50.118;8.714;2022-12-07T10:53:59;100051.53;;;6.89;71.39
8229;BME280;4155;50.118;8.714;2022-12-07T10:56:39;100044.41;;;6.82;71.47
8229;BME280;4155;50.118;8.714;2022-12-07T10:59:53;100044.03;;;6.93;70.67
8229;BME280;4155;50.118;8.714;2022-12-07T11:02:35;100046.19;;;6.97;70.17
8229;BME280;4155;50.118;8.714;2022-12-07T11:05:14;100048.06;;;7.20;70.44
8229;BME280;4155;50.118;8.714;2022-12-07T11:07:49;100039.28;;;7.11;69.87
8229;BME280;4155;50.118;8.714;2022-12-07T11:10:26;100038.69;;;7.32;69.66
8229;BME280;4155;50.118;8.714;2022-12-07T11:13:09;100043.72;;;7.27;69.17
8229;BME280;4155;50.118;8.714;2022-12-07T11:18:39;100029.81;;;7.40;68.66
8229;BME280;4155;50.118;8.714;2022-12-07T11:21:18;100035.16;;;7.63;67.17
8229;BME280;4155;50.118;8.714;2022-12-07T11:23:52;100021.47;;;7.89;66.80
8229;BME280;4155;50.118;8.714;2022-12-07T11:26:33;100029.44;;;8.49;74.36
8229;BME280;4155;50.118;8.714;2022-12-07T11:29:17;100021.25;;;8.13;66.32
8229;BME280;4155;50.118;8.714;2022-12-07T11:31:56;100015.47;;;7.87;66.68
8229;BME280;4155;50.118;8.714;2022-12-07T11:34:36;100004.78;;;7.87;66.55
8229;BME280;4155;50.118;8.714;2022-12-07T11:37:10;100000.03;;;7.97;66.33
8229;BME280;4155;50.118;8.714;2022-12-07T11:39:46;99994.66;;;7.82;66.08
8229;BME280;4155;50.118;8.714;2022-12-07T11:42:20;99997.19;;;7.52;67.13
8229;BME280;4155;50.118;8.714;2022-12-07T11:44:52;99990.69;;;7.78;66.52
8229;BME280;4155;50.118;8.714;2022-12-07T11:47:26;99993.00;;;7.81;66.28
8229;BME280;4155;50.118;8.714;2022-12-07T11:50:03;99985.00;;;7.58;66.46
8229;BME280;4155;50.118;8.714;2022-12-07T11:52:43;99986.09;;;7.64;66.55
8229;BME280;4155;50.118;8.714;2022-12-07T11:55:24;99977.69;;;7.75;66.53
8229;BME280;4155;50.118;8.714;2022-12-07T11:57:59;99978.50;;;7.75;66.56
8229;BME280;4155;50.118;8.714;2022-12-07T12:00:30;99978.69;;;7.74;66.59
8229;BME280;4155;50.118;8.714;2022-12-07T12:03:02;99961.28;;;7.40;66.91
8229;BME280;4155;50.118;8.714;2022-12-07T12:05:33;99965.19;;;7.30;66.80
8229;BME280;4155;50.118;8.714;2022-12-07T12:08:12;99964.34;;;7.29;67.39
8229;BME280;4155;50.118;8.714;2022-12-07T12:11:10;99950.50;;;7.34;65.73
8229;BME280;4155;50.118;8.714;2022-12-07T12:13:58;99953.72;;;7.44;66.41
8229;BME280;4155;50.118;8.714;2022-12-07T12:20:21;99946.09;;;7.64;64.85
8229;BME280;4155;50.118;8.714;2022-12-07T12:22:55;99943.09;;;7.81;64.76
8229;BME280;4155;50.118;8.714;2022-12-07T12:25:27;99937.81;;;7.73;64.45
8229;BME280;4155;50.118;8.714;2022-12-07T12:27:58;99934.91;;;7.83;64.42
8229;BME280;4155;50.118;8.714;2022-12-07T12:30:32;99938.44;;;7.98;64.06
8229;BME280;4155;50.118;8.714;2022-12-07T12:33:03;99923.19;;;7.69;64.35
8229;BME280;4155;50.118;8.714;2022-12-07T12:35:34;99929.47;;;7.76;64.44
8229;BME280;4155;50.118;8.714;2022-12-07T12:38:27;99923.47;;;7.74;65.30
8229;BME280;4155;50.118;8.714;2022-12-07T12:40:55;99919.25;;;7.80;65.16
8229;BME280;4155;50.118;8.714;2022-12-07T12:46:46;99916.16;;;7.91;64.81
8229;BME280;4155;50.118;8.714;2022-12-07T12:49:33;99913.59;;;7.98;64.85
8229;BME280;4155;50.118;8.714;2022-12-07T12:55:15;99912.34;;;7.71;65.07
8229;BME280;4155;50.118;8.714;2022-12-07T12:57:48;99903.63;;;7.77;65.18
8229;BME280;4155;50.118;8.714;2022-12-07T13:00:37;99901.97;;;7.53;66.05
8229;BME280;4155;50.118;8.714;2022-12-07T13:03:21;99903.22;;;7.42;66.67
8229;BME280;4155;50.118;8.714;2022-12-07T13:06:19;99910.16;;;7.51;67.27
8229;BME280;4155;50.118;8.714;2022-12-07T13:08:57;99909.28;;;7.36;67.95
8229;BME280;4155;50.118;8.714;2022-12-07T13:11:34;99904.31;;;7.56;68.15
8229;BME280;4155;50.118;8.714;2022-12-07T13:14:40;99902.09;;;7.60;67.03
8229;BME280;4155;50.118;8.714;2022-12-07T13:20:45;99897.53;;;7.68;67.79
8229;BME280;4155;50.118;8.714;2022-12-07T13:23:16;99912.78;;;7.60;68.62
8229;BME280;4155;50.118;8.714;2022-12-07T13:25:51;99900.13;;;7.53;69.97
8229;BME280;4155;50.118;8.714;2022-12-07T13:28:20;99903.47;;;7.56;71.22
8229;BME280;4155;50.118;8.714;2022-12-07T13:31:03;99907.38;;;7.68;69.68
8229;BME280;4155;50.118;8.714;2022-12-07T13:33:34;99903.97;;;7.74;69.67
8229;BME280;4155;50.118;8.714;2022-12-07T13:36:02;99906.19;;;7.85;68.65
8229;BME280;4155;50.118;8.714;2022-12-07T13:38:32;99900.63;;;7.57;69.21
8229;BME280;4155;50.118;8.714;2022-12-07T13:41:15;99901.47;;;7.35;69.64
8229;BME280;4155;50.118;8.714;2022-12-07T13:43:44;99901.81;;;7.09;70.36
8229;BME280;4155;50.118;8.714;2022-12-07T13:46:12;99898.31;;;7.08;71.07
8229;BME280;4155;50.118;8.714;2022-12-07T13:48:46;99897.91;;;6.96;71.27
8229;BME280;4155;50.118;8.714;2022-12-07T13:51:18;99904.53;;;7.01;71.38
8229;BME280;4155;50.118;8.714;2022-12-07T13:53:47;99896.47;;;6.86;71.59
8229;BME280;4155;50.118;8.714;2022-12-07T13:56:16;99901.16;;;6.84;71.17
8229;BME280;4155;50.118;8.714;2022-12-07T13:58:44;99898.84;;;6.81;70.83
8229;BME280;4155;50.118;8.714;2022-12-07T14:01:12;99905.50;;;6.77;71.08
8229;BME280;4155;50.118;8.714;2022-12-07T14:03:40;99905.66;;;6.83;71.52
8229;BME280;4155;50.118;8.714;2022-12-07T14:06:23;99900.38;;;6.67;71.50
8229;BME280;4155;50.118;8.714;2022-12-07T14:09:16;99902.47;;;6.80;70.94
8229;BME280;4155;50.118;8.714;2022-12-07T14:11:45;99905.31;;;6.78;70.63
8229;BME280;4155;50.118;8.714;2022-12-07T14:14:16;99902.38;;;6.73;70.76
8229;BME280;4155;50.118;8.714;2022-12-07T14:16:56;99901.72;;;6.71;71.03